createdAt,value
2023-04-04T00:00:42.734Z,0.00
2023-04-04T00:01:42.556Z,0.00
2023-04-04T00:02:42.561Z,0.00
2023-04-04T00:03:42.577Z,0.00
2023-04-04T00:04:42.549Z,0.00
2023-04-04T00:05:42.524Z,0.00
2023-04-04T00:06:42.462Z,0.00
2023-04-04T00:07:42.493Z,0.00
2023-04-04T00:08:42.437Z,0.00
2023-04-04T00:09:42.465Z,0.00
2023-04-04T00:10:42.765Z,0.00
2023-04-04T00:11:42.439Z,0.00
2023-04-04T00:12:42.440Z,0.00
2023-04-04T00:13:42.385Z,0.00
2023-04-04T00:14:42.356Z,0.00
2023-04-04T00:15:42.384Z,0.00
2023-04-04T00:16:42.344Z,0.00
2023-04-04T00:17:42.386Z,0.00
2023-04-04T00:18:42.332Z,0.00
2023-04-04T00:19:42.304Z,0.00
2023-04-04T00:20:42.583Z,0.00
2023-04-04T00:21:42.300Z,0.00
2023-04-04T00:22:42.268Z,0.00
2023-04-04T00:23:42.314Z,0.00
2023-04-04T00:24:42.233Z,0.00
2023-04-04T00:25:42.247Z,0.00
2023-04-04T00:26:42.234Z,0.00
2023-04-04T00:27:42.228Z,0.00
2023-04-04T00:28:42.184Z,0.00
2023-04-04T00:29:42.209Z,0.00
2023-04-04T00:30:42.341Z,0.00
2023-04-04T00:31:42.211Z,0.00
2023-04-04T00:32:42.385Z,0.00
2023-04-04T00:33:42.143Z,0.00
2023-04-04T00:34:42.120Z,0.00
2023-04-04T00:35:42.281Z,0.00
2023-04-04T00:36:42.119Z,0.00
2023-04-04T00:37:42.114Z,0.00
2023-04-04T00:38:42.062Z,0.00
2023-04-04T00:39:42.073Z,0.00
2023-04-04T00:40:42.206Z,0.00
2023-04-04T00:41:42.055Z,0.00
2023-04-04T00:42:41.993Z,0.00
2023-04-04T00:43:42.019Z,0.00
2023-04-04T00:44:41.984Z,0.00
2023-04-04T00:45:42.019Z,0.00
2023-04-04T00:46:41.945Z,0.00
2023-04-04T00:47:41.982Z,0.00
2023-04-04T00:48:41.936Z,0.00
2023-04-04T00:49:41.966Z,0.00
2023-04-04T00:50:42.171Z,0.00
2023-04-04T00:51:41.970Z,0.00
2023-04-04T00:52:41.932Z,0.00
2023-04-04T00:53:41.932Z,0.00
2023-04-04T00:54:41.862Z,0.00
2023-04-04T00:55:41.903Z,0.00
2023-04-04T00:56:41.849Z,0.00
2023-04-04T00:57:41.831Z,0.00
2023-04-04T00:58:41.794Z,0.00
2023-04-04T00:59:41.862Z,0.00
2023-04-04T01:00:42.000Z,0.00
2023-04-04T01:01:41.935Z,0.00
2023-04-04T01:02:47.938Z,0.00
2023-04-04T01:03:41.763Z,0.00
2023-04-04T01:04:41.760Z,0.00
2023-04-04T01:05:41.763Z,0.00
2023-04-04T01:06:41.709Z,0.00
2023-04-04T01:07:41.710Z,0.00
2023-04-04T01:08:41.664Z,0.00
2023-04-04T01:09:41.701Z,0.00
2023-04-04T01:10:41.922Z,0.00
2023-04-04T01:11:41.644Z,0.00
2023-04-04T01:12:41.639Z,0.00
2023-04-04T01:13:41.619Z,0.00
2023-04-04T01:14:41.586Z,0.00
2023-04-04T01:15:41.595Z,0.00
2023-04-04T01:16:41.599Z,0.00
2023-04-04T01:17:41.606Z,0.00
2023-04-04T01:18:41.561Z,0.00
2023-04-04T01:19:41.536Z,0.00
2023-04-04T01:20:41.617Z,0.00
2023-04-04T01:21:41.514Z,0.00
2023-04-04T01:22:41.515Z,0.00
2023-04-04T01:23:41.490Z,0.00
2023-04-04T01:24:41.488Z,0.00
2023-04-04T01:25:41.467Z,0.00
2023-04-04T01:26:41.437Z,0.00
2023-04-04T01:27:41.446Z,0.00
2023-04-04T01:28:41.437Z,0.00
2023-04-04T01:29:41.402Z,0.00
2023-04-04T01:30:41.568Z,0.00
2023-04-04T01:31:41.423Z,0.00
2023-04-04T01:32:41.465Z,0.00
2023-04-04T01:33:41.375Z,0.00
2023-04-04T01:34:41.333Z,0.00
2023-04-04T01:35:41.347Z,0.00
2023-04-04T01:36:41.303Z,0.00
2023-04-04T01:37:41.321Z,0.00
2023-04-04T01:38:41.316Z,0.00
2023-04-04T01:39:41.315Z,0.00
2023-04-04T01:40:41.491Z,0.00
2023-04-04T01:41:41.263Z,0.00
2023-04-04T01:42:41.214Z,0.00
2023-04-04T01:43:41.259Z,0.00
2023-04-04T01:44:41.195Z,0.00
2023-04-04T01:45:41.226Z,0.00
2023-04-04T01:46:41.157Z,0.00
2023-04-04T01:47:41.221Z,0.00
2023-04-04T01:48:41.145Z,0.00
2023-04-04T01:49:41.162Z,0.00
2023-04-04T01:50:41.282Z,0.00
2023-04-04T01:51:41.128Z,0.00
2023-04-04T01:52:41.125Z,0.00
2023-04-04T01:53:41.106Z,0.00
2023-04-04T01:54:41.081Z,0.00
2023-04-04T01:55:41.080Z,0.00
2023-04-04T01:56:41.037Z,0.00
2023-04-04T01:57:41.084Z,0.00
2023-04-04T01:58:41.004Z,0.00
2023-04-04T01:59:41.029Z,0.00
2023-04-04T02:00:41.150Z,0.00
2023-04-04T02:01:41.105Z,0.00
2023-04-04T02:02:41.006Z,0.00
2023-04-04T02:03:41.043Z,0.00
2023-04-04T02:04:40.951Z,0.00
2023-04-04T02:05:40.973Z,0.00
2023-04-04T02:06:40.956Z,0.00
2023-04-04T02:07:40.958Z,0.00
2023-04-04T02:08:40.884Z,0.00
2023-04-04T02:09:40.909Z,0.00
2023-04-04T02:10:41.098Z,0.00
2023-04-04T02:11:40.873Z,0.00
2023-04-04T02:12:40.868Z,0.00
2023-04-04T02:13:40.866Z,0.00
2023-04-04T02:14:40.820Z,0.00
2023-04-04T02:15:40.889Z,0.00
2023-04-04T02:16:40.789Z,0.00
2023-04-04T02:17:40.800Z,0.00
2023-04-04T02:18:40.754Z,0.00
2023-04-04T02:19:40.758Z,0.00
2023-04-04T02:20:41.057Z,0.00
2023-04-04T02:21:40.753Z,0.00
2023-04-04T02:22:40.749Z,0.00
2023-04-04T02:23:40.730Z,0.00
2023-04-04T02:24:40.675Z,0.00
2023-04-04T02:25:40.684Z,0.00
2023-04-04T02:26:40.668Z,0.00
2023-04-04T02:27:40.683Z,0.00
2023-04-04T02:28:40.624Z,0.00
2023-04-04T02:29:40.629Z,0.00
2023-04-04T02:30:41.038Z,0.00
2023-04-04T02:31:40.708Z,0.00
2023-04-04T02:32:40.637Z,0.00
2023-04-04T02:33:40.589Z,0.00
2023-04-04T02:34:40.543Z,0.00
2023-04-04T02:35:40.583Z,0.00
2023-04-04T02:36:40.522Z,0.00
2023-04-04T02:37:40.561Z,0.00
2023-04-04T02:38:40.495Z,0.00
2023-04-04T02:39:40.521Z,0.00
2023-04-04T02:40:40.685Z,0.00
2023-04-04T02:41:40.466Z,0.00
2023-04-04T02:42:40.491Z,0.00
2023-04-04T02:43:40.442Z,0.00
2023-04-04T02:44:40.444Z,0.00
2023-04-04T02:45:40.437Z,0.00
2023-04-04T02:46:40.493Z,0.00
2023-04-04T02:47:40.463Z,0.00
2023-04-04T02:48:40.360Z,0.00
2023-04-04T02:49:40.406Z,0.00
2023-04-04T02:50:40.580Z,0.00
2023-04-04T02:51:40.361Z,0.00
2023-04-04T02:52:40.323Z,0.00
2023-04-04T02:53:40.323Z,0.00
2023-04-04T02:54:40.311Z,0.00
2023-04-04T02:55:40.320Z,0.00
2023-04-04T02:56:40.289Z,0.00
2023-04-04T02:57:40.295Z,0.00
2023-04-04T02:58:41.587Z,0.00
2023-04-04T02:59:40.259Z,0.00
2023-04-04T03:00:40.590Z,0.00
2023-04-04T03:01:40.265Z,0.00
2023-04-04T03:02:40.238Z,0.00
2023-04-04T03:03:40.258Z,0.00
2023-04-04T03:04:40.169Z,0.00
2023-04-04T03:05:40.170Z,0.00
2023-04-04T03:06:40.147Z,0.00
2023-04-04T03:07:40.141Z,0.00
2023-04-04T03:08:40.122Z,0.00
2023-04-04T03:09:40.113Z,0.00
2023-04-04T03:10:40.238Z,0.00
2023-04-04T03:11:40.099Z,0.00
2023-04-04T03:12:40.056Z,0.00
2023-04-04T03:13:40.155Z,0.00
2023-04-04T03:14:40.067Z,0.00
2023-04-04T03:15:40.062Z,0.00
2023-04-04T03:16:40.045Z,0.00
2023-04-04T03:17:40.836Z,0.00
2023-04-04T03:18:39.996Z,0.00
2023-04-04T03:19:39.990Z,0.00
2023-04-04T03:20:40.163Z,0.00
2023-04-04T03:21:39.977Z,0.00
2023-04-04T03:22:39.927Z,0.00
2023-04-04T03:23:39.992Z,0.00
2023-04-04T03:24:40.296Z,0.00
2023-04-04T03:25:39.927Z,0.00
2023-04-04T03:26:39.915Z,0.00
2023-04-04T03:27:39.881Z,0.00
2023-04-04T03:28:39.853Z,0.00
2023-04-04T03:29:39.860Z,0.00
2023-04-04T03:30:40.209Z,0.00
2023-04-04T03:31:39.872Z,0.00
2023-04-04T03:32:39.839Z,0.00
2023-04-04T03:33:39.810Z,0.00
2023-04-04T03:34:39.773Z,0.00
2023-04-04T03:35:39.964Z,0.00
2023-04-04T03:36:39.787Z,0.00
2023-04-04T03:37:39.743Z,0.00
2023-04-04T03:38:39.739Z,0.00
2023-04-04T03:39:39.718Z,0.00
2023-04-04T03:40:40.058Z,0.00
2023-04-04T03:41:39.713Z,0.00
2023-04-04T03:42:39.694Z,0.00
2023-04-04T03:43:39.677Z,0.00
2023-04-04T03:44:39.663Z,0.00
2023-04-04T03:45:39.651Z,0.00
2023-04-04T03:46:39.653Z,0.00
2023-04-04T03:47:39.647Z,0.00
2023-04-04T03:48:39.630Z,0.00
2023-04-04T03:49:39.582Z,0.00
2023-04-04T03:50:39.744Z,0.00
2023-04-04T03:51:39.562Z,0.00
2023-04-04T03:52:39.577Z,0.00
2023-04-04T03:53:39.567Z,0.00
2023-04-04T03:54:39.547Z,0.00
2023-04-04T03:55:39.490Z,0.00
2023-04-04T03:56:39.504Z,0.00
2023-04-04T03:57:39.479Z,0.00
2023-04-04T03:58:39.506Z,0.00
2023-04-04T03:59:39.490Z,0.00
2023-04-04T04:00:39.666Z,0.00
2023-04-04T04:01:39.411Z,0.00
2023-04-04T04:02:39.530Z,0.00
2023-04-04T04:03:39.452Z,0.00
2023-04-04T04:04:39.554Z,0.00
2023-04-04T04:05:39.384Z,0.00
2023-04-04T04:06:39.381Z,0.00
2023-04-04T04:07:39.369Z,0.00
2023-04-04T04:08:39.377Z,0.00
2023-04-04T04:09:39.311Z,0.00
2023-04-04T04:10:39.645Z,0.00
2023-04-04T04:11:39.323Z,0.00
2023-04-04T04:12:39.315Z,0.00
2023-04-04T04:13:39.274Z,0.00
2023-04-04T04:14:39.267Z,0.00
2023-04-04T04:15:39.273Z,0.00
2023-04-04T04:16:39.256Z,0.00
2023-04-04T04:17:39.252Z,0.00
2023-04-04T04:18:39.221Z,0.00
2023-04-04T04:19:39.188Z,0.00
2023-04-04T04:20:39.456Z,0.00
2023-04-04T04:21:39.163Z,0.00
2023-04-04T04:22:39.177Z,0.00
2023-04-04T04:23:39.164Z,0.00
2023-04-04T04:24:39.150Z,0.00
2023-04-04T04:25:39.118Z,0.00
2023-04-04T04:26:39.121Z,0.00
2023-04-04T04:27:39.094Z,0.00
2023-04-04T04:28:39.136Z,0.00
2023-04-04T04:29:39.083Z,0.00
2023-04-04T04:30:39.213Z,0.00
2023-04-04T04:31:39.100Z,0.00
2023-04-04T04:32:39.088Z,0.00
2023-04-04T04:33:39.011Z,0.00
2023-04-04T04:34:39.033Z,0.00
2023-04-04T04:35:39.085Z,0.00
2023-04-04T04:36:39.008Z,0.00
2023-04-04T04:37:38.989Z,0.00
2023-04-04T04:38:38.971Z,0.00
2023-04-04T04:39:38.963Z,0.00
2023-04-04T04:40:39.121Z,0.00
2023-04-04T04:41:38.907Z,0.00
2023-04-04T04:42:38.969Z,0.00
2023-04-04T04:43:38.890Z,4.00
2023-04-04T04:44:38.897Z,0.00
2023-04-04T04:45:38.877Z,0.00
2023-04-04T04:46:38.979Z,0.00
2023-04-04T04:47:38.893Z,4.00
2023-04-04T04:48:38.883Z,0.00
2023-04-04T04:49:38.842Z,0.00
2023-04-04T04:50:39.089Z,4.00
2023-04-04T04:51:38.780Z,4.00
2023-04-04T04:52:38.794Z,0.00
2023-04-04T04:53:38.796Z,4.00
2023-04-04T04:54:38.794Z,4.00
2023-04-04T04:55:38.727Z,4.00
2023-04-04T04:56:38.771Z,4.00
2023-04-04T04:57:38.723Z,4.00
2023-04-04T04:58:38.740Z,4.00
2023-04-04T04:59:38.715Z,4.00
2023-04-04T05:00:39.022Z,4.00
2023-04-04T05:01:38.744Z,4.00
2023-04-04T05:02:38.737Z,8.00
2023-04-04T05:03:38.653Z,4.00
2023-04-04T05:04:38.637Z,8.00
2023-04-04T05:05:38.612Z,8.00
2023-04-04T05:06:38.611Z,8.00
2023-04-04T05:07:38.585Z,12.00
2023-04-04T05:08:38.617Z,12.00
2023-04-04T05:09:38.554Z,12.00
2023-04-04T05:10:38.869Z,12.00
2023-04-04T05:11:38.526Z,16.00
2023-04-04T05:12:38.554Z,16.00
2023-04-04T05:13:38.538Z,16.00
2023-04-04T05:14:38.507Z,16.00
2023-04-04T05:15:38.465Z,16.00
2023-04-04T05:16:38.518Z,16.00
2023-04-04T05:17:38.560Z,20.00
2023-04-04T05:18:38.470Z,20.00
2023-04-04T05:19:38.478Z,20.00
2023-04-04T05:20:38.711Z,24.00
2023-04-04T05:21:38.402Z,24.00
2023-04-04T05:22:38.414Z,28.00
2023-04-04T05:23:38.361Z,28.00
2023-04-04T05:24:38.422Z,28.00
2023-04-04T05:25:38.352Z,28.00
2023-04-04T05:26:38.365Z,32.00
2023-04-04T05:27:38.308Z,28.00
2023-04-04T05:28:38.387Z,32.00
2023-04-04T05:29:38.287Z,36.00
2023-04-04T05:30:38.532Z,36.00
2023-04-04T05:31:38.330Z,36.00
2023-04-04T05:32:38.308Z,36.00
2023-04-04T05:33:38.263Z,36.00
2023-04-04T05:34:38.252Z,40.00
2023-04-04T05:35:38.294Z,40.00
2023-04-04T05:36:38.294Z,40.00
2023-04-04T05:37:38.215Z,40.00
2023-04-04T05:38:38.205Z,44.00
2023-04-04T05:39:38.191Z,44.00
2023-04-04T05:40:38.404Z,44.00
2023-04-04T05:41:38.163Z,44.00
2023-04-04T05:42:38.169Z,48.00
2023-04-04T05:43:38.106Z,48.00
2023-04-04T05:44:38.149Z,52.00
2023-04-04T05:45:40.485Z,52.00
2023-04-04T05:46:38.135Z,52.00
2023-04-04T05:47:38.206Z,52.00
2023-04-04T05:48:38.074Z,56.00
2023-04-04T05:49:38.046Z,56.00
2023-04-04T05:50:38.274Z,56.00
2023-04-04T05:51:38.031Z,56.00
2023-04-04T05:52:38.042Z,56.00
2023-04-04T05:53:37.987Z,60.00
2023-04-04T05:54:37.990Z,60.00
2023-04-04T05:55:37.969Z,60.00
2023-04-04T05:56:37.972Z,64.00
2023-04-04T05:57:37.979Z,64.00
2023-04-04T05:58:37.960Z,64.00
2023-04-04T05:59:37.911Z,68.00
2023-04-04T06:00:38.423Z,68.00
2023-04-04T06:01:37.911Z,68.00
2023-04-04T06:02:37.982Z,72.00
2023-04-04T06:03:38.150Z,72.00
2023-04-04T06:04:37.874Z,76.00
2023-04-04T06:05:37.864Z,76.00
2023-04-04T06:06:37.874Z,76.00
2023-04-04T06:07:37.813Z,76.00
2023-04-04T06:08:50.570Z,76.00
2023-04-04T06:09:37.774Z,80.00
2023-04-04T06:10:38.224Z,76.00
2023-04-04T06:11:37.798Z,76.00
2023-04-04T06:12:37.767Z,80.00
2023-04-04T06:13:37.734Z,80.00
2023-04-04T06:14:37.760Z,84.00
2023-04-04T06:15:37.744Z,80.00
2023-04-04T06:16:37.783Z,84.00
2023-04-04T06:17:37.756Z,84.00
2023-04-04T06:18:37.703Z,88.00
2023-04-04T06:19:37.681Z,88.00
2023-04-04T06:20:37.961Z,88.00
2023-04-04T06:21:37.627Z,92.00
2023-04-04T06:22:37.682Z,92.00
2023-04-04T06:23:37.726Z,96.00
2023-04-04T06:24:37.854Z,92.00
2023-04-04T06:25:37.645Z,96.00
2023-04-04T06:26:37.607Z,96.00
2023-04-04T06:27:37.575Z,100.00
2023-04-04T06:28:37.571Z,100.00
2023-04-04T06:29:37.531Z,104.00
2023-04-04T06:30:38.036Z,108.00
2023-04-04T06:31:37.554Z,108.00
2023-04-04T06:32:37.559Z,112.00
2023-04-04T06:33:37.478Z,112.00
2023-04-04T06:34:37.541Z,120.00
2023-04-04T06:35:37.454Z,124.00
2023-04-04T06:36:37.485Z,124.00
2023-04-04T06:37:37.446Z,128.00
2023-04-04T06:38:37.461Z,136.00
2023-04-04T06:39:37.402Z,140.00
2023-04-04T06:40:37.609Z,140.00
2023-04-04T06:41:37.408Z,144.00
2023-04-04T06:42:37.393Z,148.00
2023-04-04T06:43:37.352Z,148.00
2023-04-04T06:44:37.372Z,156.00
2023-04-04T06:45:37.328Z,160.00
2023-04-04T06:46:37.398Z,168.00
2023-04-04T06:47:37.364Z,172.00
2023-04-04T06:48:37.348Z,180.00
2023-04-04T06:49:37.275Z,188.00
2023-04-04T06:50:37.392Z,196.00
2023-04-04T06:51:37.249Z,208.00
2023-04-04T06:52:39.581Z,220.00
2023-04-04T06:53:37.213Z,236.00
2023-04-04T06:54:37.268Z,248.00
2023-04-04T06:55:37.219Z,260.00
2023-04-04T06:56:37.202Z,272.00
2023-04-04T06:57:37.176Z,284.00
2023-04-04T06:58:37.174Z,292.00
2023-04-04T06:59:37.155Z,308.00
2023-04-04T07:00:37.401Z,320.00
2023-04-04T07:01:37.260Z,332.00
2023-04-04T07:02:37.306Z,336.00
2023-04-04T07:03:37.089Z,336.00
2023-04-04T07:04:37.111Z,344.00
2023-04-04T07:05:37.100Z,356.00
2023-04-04T07:06:37.082Z,372.00
2023-04-04T07:07:37.037Z,384.00
2023-04-04T07:08:37.274Z,388.00
2023-04-04T07:09:37.068Z,400.00
2023-04-04T07:10:38.054Z,408.00
2023-04-04T07:11:36.994Z,412.00
2023-04-04T07:12:37.030Z,416.00
2023-04-04T07:13:36.973Z,420.00
2023-04-04T07:14:37.010Z,424.00
2023-04-04T07:15:36.964Z,436.00
2023-04-04T07:16:36.985Z,448.00
2023-04-04T07:17:36.947Z,464.00
2023-04-04T07:18:36.930Z,484.00
2023-04-04T07:19:36.876Z,508.00
2023-04-04T07:20:37.163Z,524.00
2023-04-04T07:21:36.837Z,548.00
2023-04-04T07:22:36.889Z,568.00
2023-04-04T07:23:36.850Z,592.00
2023-04-04T07:24:36.836Z,616.00
2023-04-04T07:25:36.812Z,648.00
2023-04-04T07:26:36.818Z,676.00
2023-04-04T07:27:36.814Z,712.00
2023-04-04T07:28:36.778Z,748.00
2023-04-04T07:29:36.762Z,784.00
2023-04-04T07:30:36.766Z,812.00
2023-04-04T07:31:36.792Z,848.00
2023-04-04T07:32:36.755Z,896.00
2023-04-04T07:33:36.696Z,948.00
2023-04-04T07:34:36.738Z,996.00
2023-04-04T07:35:36.730Z,1036.00
2023-04-04T07:36:36.704Z,1080.00
2023-04-04T07:37:36.635Z,1120.00
2023-04-04T07:38:36.662Z,1156.00
2023-04-04T07:39:36.628Z,1180.00
2023-04-04T07:40:36.699Z,1200.00
2023-04-04T07:41:36.592Z,1220.00
2023-04-04T07:42:36.634Z,1228.00
2023-04-04T07:43:36.582Z,1224.00
2023-04-04T07:44:36.585Z,1228.00
2023-04-04T07:45:36.544Z,1220.00
2023-04-04T07:46:36.590Z,1080.00
2023-04-04T07:47:36.569Z,1064.00
2023-04-04T07:48:36.538Z,1096.00
2023-04-04T07:49:36.507Z,1232.00
2023-04-04T07:50:36.509Z,1224.00
2023-04-04T07:51:36.457Z,1224.00
2023-04-04T07:52:36.500Z,1224.00
2023-04-04T07:53:36.484Z,1224.00
2023-04-04T07:54:36.444Z,1224.00
2023-04-04T07:55:36.458Z,1216.00
2023-04-04T07:56:36.399Z,1212.00
2023-04-04T07:57:36.417Z,1208.00
2023-04-04T07:58:36.408Z,1208.00
2023-04-04T07:59:36.372Z,1204.00
2023-04-04T08:00:36.370Z,1180.00
2023-04-04T08:01:36.351Z,1144.00
2023-04-04T08:02:36.465Z,1112.00
2023-04-04T08:03:36.464Z,1040.00
2023-04-04T08:04:36.315Z,1064.00
2023-04-04T08:05:36.324Z,1096.00
2023-04-04T08:06:36.294Z,1076.00
2023-04-04T08:07:36.281Z,1128.00
2023-04-04T08:08:36.241Z,1112.00
2023-04-04T08:09:36.269Z,992.00
2023-04-04T08:10:36.212Z,960.00
2023-04-04T08:11:36.249Z,976.00
2023-04-04T08:12:36.257Z,1084.00
2023-04-04T08:13:36.237Z,1164.00
2023-04-04T08:14:36.174Z,1136.00
2023-04-04T08:15:36.274Z,1168.00
2023-04-04T08:16:36.145Z,1148.00
2023-04-04T08:17:36.181Z,1128.00
2023-04-04T08:18:36.108Z,1132.00
2023-04-04T08:19:36.111Z,1100.00
2023-04-04T08:20:36.080Z,1128.00
2023-04-04T08:21:36.124Z,1124.00
2023-04-04T08:22:36.073Z,1120.00
2023-04-04T08:23:36.100Z,1120.00
2023-04-04T08:24:36.069Z,1120.00
2023-04-04T08:25:36.045Z,1024.00
2023-04-04T08:26:36.010Z,1020.00
2023-04-04T08:27:36.050Z,1016.00
2023-04-04T08:28:36.059Z,984.00
2023-04-04T08:29:35.970Z,1008.00
2023-04-04T08:30:35.970Z,960.00
2023-04-04T08:31:36.079Z,952.00
2023-04-04T08:32:35.951Z,984.00
2023-04-04T08:33:46.741Z,1000.00
2023-04-04T08:34:35.940Z,1008.00
2023-04-04T08:35:35.914Z,1032.00
2023-04-04T08:36:35.875Z,1028.00
2023-04-04T08:37:35.911Z,1060.00
2023-04-04T08:38:35.851Z,1012.00
2023-04-04T08:39:35.922Z,1016.00
2023-04-04T08:40:35.842Z,1024.00
2023-04-04T08:41:35.831Z,1012.00
2023-04-04T08:42:35.814Z,992.00
2023-04-04T08:43:35.800Z,868.00
2023-04-04T08:44:35.794Z,856.00
2023-04-04T08:45:35.797Z,924.00
2023-04-04T08:46:35.802Z,956.00
2023-04-04T08:47:35.791Z,1024.00
2023-04-04T08:48:35.758Z,996.00
2023-04-04T08:49:35.754Z,992.00
2023-04-04T08:50:35.729Z,968.00
2023-04-04T08:51:35.700Z,1000.00
2023-04-04T08:52:35.664Z,988.00
2023-04-04T08:53:35.690Z,988.00
2023-04-04T08:54:35.665Z,976.00
2023-04-04T08:55:35.664Z,980.00
2023-04-04T08:56:35.612Z,956.00
2023-04-04T08:57:35.614Z,944.00
2023-04-04T08:58:35.592Z,964.00
2023-04-04T08:59:35.755Z,936.00
2023-04-04T09:00:35.614Z,928.00
2023-04-04T09:01:35.573Z,952.00
2023-04-04T09:02:35.599Z,940.00
2023-04-04T09:03:35.670Z,924.00
2023-04-04T09:04:35.537Z,920.00
2023-04-04T09:05:35.540Z,880.00
2023-04-04T09:06:35.603Z,872.00
2023-04-04T09:07:38.616Z,920.00
2023-04-04T09:08:35.464Z,916.00
2023-04-04T09:09:35.506Z,912.00
2023-04-04T09:10:35.445Z,900.00
2023-04-04T09:11:35.450Z,900.00
2023-04-04T09:12:35.407Z,888.00
2023-04-04T09:13:35.438Z,884.00
2023-04-04T09:14:35.375Z,876.00
2023-04-04T09:15:35.392Z,876.00
2023-04-04T09:16:35.385Z,876.00
2023-04-04T09:17:35.377Z,868.00
2023-04-04T09:18:35.313Z,864.00
2023-04-04T09:19:35.364Z,852.00
2023-04-04T09:20:35.305Z,848.00
2023-04-04T09:21:35.313Z,840.00
2023-04-04T09:22:35.299Z,812.00
2023-04-04T09:23:35.486Z,824.00
2023-04-04T09:24:35.255Z,836.00
2023-04-04T09:25:35.261Z,816.00
2023-04-04T09:26:35.228Z,800.00
2023-04-04T09:27:35.236Z,800.00
2023-04-04T09:28:35.216Z,796.00
2023-04-04T09:29:35.236Z,772.00
2023-04-04T09:30:35.164Z,768.00
2023-04-04T09:31:35.246Z,768.00
2023-04-04T09:32:35.170Z,752.00
2023-04-04T09:33:35.169Z,764.00
2023-04-04T09:34:35.122Z,776.00
2023-04-04T09:35:35.147Z,780.00
2023-04-04T09:36:35.109Z,764.00
2023-04-04T09:37:35.118Z,740.00
2023-04-04T09:38:35.064Z,732.00
2023-04-04T09:39:35.133Z,740.00
2023-04-04T09:40:35.093Z,736.00
2023-04-04T09:41:35.075Z,732.00
2023-04-04T09:42:35.035Z,720.00
2023-04-04T09:43:35.702Z,716.00
2023-04-04T09:44:35.014Z,712.00
2023-04-04T09:45:34.988Z,708.00
2023-04-04T09:46:34.994Z,708.00
2023-04-04T09:47:35.010Z,680.00
2023-04-04T09:48:34.953Z,684.00
2023-04-04T09:49:34.941Z,688.00
2023-04-04T09:50:34.904Z,680.00
2023-04-04T09:51:34.944Z,672.00
2023-04-04T09:52:34.876Z,668.00
2023-04-04T09:53:34.888Z,672.00
2023-04-04T09:54:34.847Z,656.00
2023-04-04T09:55:34.929Z,656.00
2023-04-04T09:56:34.834Z,648.00
2023-04-04T09:57:34.856Z,644.00
2023-04-04T09:58:34.809Z,632.00
2023-04-04T09:59:34.854Z,632.00
2023-04-04T10:00:34.750Z,632.00
2023-04-04T10:01:35.694Z,612.00
2023-04-04T10:02:34.798Z,604.00
2023-04-04T10:03:34.760Z,608.00
2023-04-04T10:04:34.740Z,604.00
2023-04-04T10:05:34.756Z,596.00
2023-04-04T10:06:34.728Z,580.00
2023-04-04T10:07:34.708Z,588.00
2023-04-04T10:08:34.687Z,576.00
2023-04-04T10:09:34.664Z,568.00
2023-04-04T10:10:34.629Z,572.00
2023-04-04T10:11:34.641Z,560.00
2023-04-04T10:12:34.644Z,560.00
2023-04-04T10:13:34.610Z,556.00
2023-04-04T10:14:34.632Z,572.00
2023-04-04T10:15:34.592Z,636.00
2023-04-04T10:16:34.608Z,692.00
2023-04-04T10:17:34.598Z,632.00
2023-04-04T10:18:34.560Z,528.00
2023-04-04T10:19:34.590Z,484.00
2023-04-04T10:20:34.515Z,468.00
2023-04-04T10:21:34.522Z,452.00
2023-04-04T10:22:34.463Z,448.00
2023-04-04T10:23:34.493Z,440.00
2023-04-04T10:24:34.461Z,424.00
2023-04-04T10:25:34.445Z,412.00
2023-04-04T10:26:34.472Z,404.00
2023-04-04T10:27:34.457Z,396.00
2023-04-04T10:28:34.471Z,392.00
2023-04-04T10:29:34.385Z,392.00
2023-04-04T10:30:34.366Z,372.00
2023-04-04T10:31:34.479Z,368.00
2023-04-04T10:32:34.403Z,368.00
2023-04-04T10:33:34.363Z,360.00
2023-04-04T10:34:34.326Z,364.00
2023-04-04T10:35:34.352Z,368.00
2023-04-04T10:36:34.288Z,360.00
2023-04-04T10:37:34.341Z,312.00
2023-04-04T10:38:34.252Z,292.00
2023-04-04T10:39:34.273Z,384.00
2023-04-04T10:40:34.246Z,328.00
2023-04-04T10:41:34.242Z,328.00
2023-04-04T10:42:34.245Z,332.00
2023-04-04T10:43:34.226Z,320.00
2023-04-04T10:44:34.241Z,320.00
2023-04-04T10:45:34.205Z,316.00
2023-04-04T10:46:34.236Z,316.00
2023-04-04T10:47:34.229Z,312.00
2023-04-04T10:48:34.147Z,308.00
2023-04-04T10:49:34.166Z,292.00
2023-04-04T10:50:34.109Z,292.00
2023-04-04T10:51:42.006Z,296.00
2023-04-04T10:52:34.113Z,296.00
2023-04-04T10:53:34.116Z,296.00
2023-04-04T10:54:34.046Z,288.00
2023-04-04T10:55:34.078Z,280.00
2023-04-04T10:56:34.019Z,280.00
2023-04-04T10:57:34.025Z,276.00
2023-04-04T10:58:34.033Z,276.00
2023-04-04T10:59:34.161Z,272.00
2023-04-04T11:00:34.023Z,276.00
2023-04-04T11:01:33.981Z,272.00
2023-04-04T11:02:33.974Z,276.00
2023-04-04T11:03:33.978Z,276.00
2023-04-04T11:04:33.994Z,276.00
2023-04-04T11:05:33.920Z,284.00
2023-04-04T11:06:33.882Z,268.00
2023-04-04T11:07:33.894Z,264.00
2023-04-04T11:08:33.908Z,256.00
2023-04-04T11:09:33.879Z,256.00
2023-04-04T11:10:33.904Z,252.00
2023-04-04T11:11:33.853Z,248.00
2023-04-04T11:12:33.845Z,252.00
2023-04-04T11:13:33.854Z,252.00
2023-04-04T11:14:33.842Z,256.00
2023-04-04T11:15:33.832Z,248.00
2023-04-04T11:16:33.872Z,252.00
2023-04-04T11:17:33.791Z,252.00
2023-04-04T11:18:34.389Z,244.00
2023-04-04T11:19:33.757Z,240.00
2023-04-04T11:20:33.735Z,240.00
2023-04-04T11:21:33.743Z,236.00
2023-04-04T11:22:33.688Z,240.00
2023-04-04T11:23:33.711Z,240.00
2023-04-04T11:24:33.660Z,236.00
2023-04-04T11:25:33.743Z,236.00
2023-04-04T11:26:33.663Z,232.00
2023-04-04T11:27:33.699Z,232.00
2023-04-04T11:28:33.604Z,232.00
2023-04-04T11:29:33.624Z,228.00
2023-04-04T11:30:33.618Z,228.00
2023-04-04T11:31:33.678Z,224.00
2023-04-04T11:32:33.619Z,220.00
2023-04-04T11:33:33.644Z,220.00
2023-04-04T11:34:33.574Z,216.00
2023-04-04T11:35:33.588Z,220.00
2023-04-04T11:36:33.541Z,220.00
2023-04-04T11:37:33.529Z,220.00
2023-04-04T11:38:33.486Z,220.00
2023-04-04T11:39:33.492Z,220.00
2023-04-04T11:40:33.459Z,216.00
2023-04-04T11:41:33.487Z,216.00
2023-04-04T11:42:33.430Z,216.00
2023-04-04T11:43:33.438Z,212.00
2023-04-04T11:44:33.439Z,208.00
2023-04-04T11:45:33.441Z,208.00
2023-04-04T11:46:33.424Z,204.00
2023-04-04T11:47:34.326Z,204.00
2023-04-04T11:48:33.357Z,204.00
2023-04-04T11:49:33.399Z,204.00
2023-04-04T11:50:33.352Z,204.00
2023-04-04T11:51:33.389Z,204.00
2023-04-04T11:52:33.342Z,204.00
2023-04-04T11:53:33.342Z,204.00
2023-04-04T11:54:33.278Z,200.00
2023-04-04T11:55:33.308Z,196.00
2023-04-04T11:56:33.264Z,196.00
2023-04-04T11:57:33.314Z,196.00
2023-04-04T11:58:33.231Z,196.00
2023-04-04T11:59:33.274Z,192.00
2023-04-04T12:00:33.223Z,196.00
2023-04-04T12:01:33.216Z,192.00
2023-04-04T12:02:33.250Z,188.00
2023-04-04T12:03:33.329Z,188.00
2023-04-04T12:04:33.755Z,188.00
2023-04-04T12:05:33.271Z,184.00
2023-04-04T12:06:33.159Z,184.00
2023-04-04T12:07:33.184Z,184.00
2023-04-04T12:08:33.120Z,184.00
2023-04-04T12:09:33.118Z,184.00
2023-04-04T12:10:33.099Z,180.00
2023-04-04T12:11:33.075Z,176.00
2023-04-04T12:12:33.077Z,176.00
2023-04-04T12:13:33.056Z,176.00
2023-04-04T12:14:33.098Z,176.00
2023-04-04T12:15:33.000Z,176.00
2023-04-04T12:16:33.624Z,176.00
2023-04-04T12:17:33.003Z,176.00
2023-04-04T12:18:32.992Z,172.00
2023-04-04T12:19:32.987Z,172.00
2023-04-04T12:20:32.989Z,168.00
2023-04-04T12:21:32.925Z,168.00
2023-04-04T12:22:32.967Z,168.00
2023-04-04T12:23:32.909Z,168.00
2023-04-04T12:24:32.934Z,168.00
2023-04-04T12:25:32.951Z,168.00
2023-04-04T12:26:32.896Z,164.00
2023-04-04T12:27:32.849Z,164.00
2023-04-04T12:28:32.866Z,164.00
2023-04-04T12:29:32.827Z,164.00
2023-04-04T12:30:32.871Z,160.00
2023-04-04T12:31:32.874Z,160.00
2023-04-04T12:32:32.838Z,160.00
2023-04-04T12:33:32.781Z,160.00
2023-04-04T12:34:32.777Z,156.00
2023-04-04T12:35:32.774Z,160.00
2023-04-04T12:36:32.770Z,160.00
2023-04-04T12:37:32.734Z,156.00
2023-04-04T12:38:32.744Z,156.00
2023-04-04T12:39:32.690Z,152.00
2023-04-04T12:40:32.747Z,156.00
2023-04-04T12:41:32.657Z,156.00
2023-04-04T12:42:32.684Z,152.00
2023-04-04T12:43:32.653Z,152.00
2023-04-04T12:44:32.646Z,152.00
2023-04-04T12:45:32.635Z,152.00
2023-04-04T12:46:32.763Z,152.00
2023-04-04T12:47:32.621Z,152.00
2023-04-04T12:48:32.598Z,152.00